Time;durP1;ratioP1;P1;durP2;ratioP2;P2;SDS_P1;SDS_P2;PMS_P1;PMS_P2;Temp;Humidity;BMP_temperature;BMP_pressure;BME280_temperature;BME280_humidity;BME280_pressure;Samples;Min_cycle;Max_cycle;Signal;HPM_P1;HPM_P2
2023/04/06 00:00:23;;;;;;;;;;;3.20;70.20;;;;;;5034696;28;19920;-63
2023/04/06 00:02:51;;;;;;;;;;;3.20;70.20;;;;;;5034970;28;20004;-64
2023/04/06 00:05:18;;;;;;;;;;;3.10;70.30;;;;;;5036241;28;19933;-65
2023/04/06 00:07:45;;;;;;;;;;;3.10;70.30;;;;;;5036628;28;19978;-62
2023/04/06 00:10:13;;;;;;;;;;;3.00;70.30;;;;;;5035544;28;19921;-62
2023/04/06 00:12:40;;;;;;;;;;;3.00;70.40;;;;;;5036262;28;19921;-63
2023/04/06 00:15:07;;;;;;;;;;;3.00;70.40;;;;;;5035915;28;19982;-61
2023/04/06 00:17:34;;;;;;;;;;;2.90;70.50;;;;;;5035989;28;19960;-76
2023/04/06 00:20:01;;;;;;;;;;;3.00;70.40;;;;;;5036352;28;19948;-75
2023/04/06 00:22:28;;;;;;;;;;;3.00;70.50;;;;;;5037157;28;19927;-65
2023/04/06 00:24:55;;;;;;;;;;;3.00;70.40;;;;;;5036856;28;19925;-64
2023/04/06 00:27:23;;;;;;;;;;;3.00;70.40;;;;;;5017338;28;19939;-66
2023/04/06 00:29:50;;;;;;;;;;;3.00;70.50;;;;;;5024958;28;19933;-66
2023/04/06 00:32:16;;;;;;;;;;;2.90;70.60;;;;;;5014898;28;19935;-66
2023/04/06 00:34:43;;;;;;;;;;;2.90;70.70;;;;;;5023910;28;20046;-65
2023/04/06 00:37:11;;;;;;;;;;;2.90;70.60;;;;;;5022565;28;19924;-75
2023/04/06 00:39:38;;;;;;;;;;;2.90;70.40;;;;;;5031241;28;19932;-73
2023/04/06 00:42:08;;;;;;;;;;;2.90;70.40;;;;;;5029743;28;20019;-72
2023/04/06 00:44:36;;;;;;;;;;;2.80;70.50;;;;;;5015726;28;19944;-74
2023/04/06 00:47:04;;;;;;;;;;;2.80;70.60;;;;;;5036812;28;19921;-64
2023/04/06 00:49:31;;;;;;;;;;;2.80;70.70;;;;;;5020113;28;19929;-62
2023/04/06 00:51:57;;;;;;;;;;;2.80;70.80;;;;;;5036722;28;19992;-66
2023/04/06 00:54:24;;;;;;;;;;;2.70;70.80;;;;;;5038159;28;19971;-66
2023/04/06 00:56:51;;;;;;;;;;;2.70;70.80;;;;;;5035144;28;20044;-63
2023/04/06 00:59:19;;;;;;;;;;;2.70;70.90;;;;;;5019512;28;19992;-63
2023/04/06 01:01:48;;;;;;;;;;;2.70;70.90;;;;;;5037258;28;19929;-66
2023/04/06 01:04:31;;;;;;;;;;;2.70;70.80;;;;;;5019662;28;19967;-65
2023/04/06 01:06:58;;;;;;;;;;;2.60;70.90;;;;;;5020461;28;19948;-65
2023/04/06 01:09:32;;;;;;;;;;;2.60;71.00;;;;;;5012597;28;19929;-65
2023/04/06 01:12:03;;;;;;;;;;;2.60;70.90;;;;;;5015060;28;19933;-66
2023/04/06 01:14:31;;;;;;;;;;;2.60;71.00;;;;;;5011158;28;20008;-64
2023/04/06 01:17:02;;;;;;;;;;;2.60;71.00;;;;;;5029136;28;20388;-61
2023/04/06 01:19:32;;;;;;;;;;;2.60;71.10;;;;;;5011128;28;19928;-61
2023/04/06 01:21:59;;;;;;;;;;;2.50;71.20;;;;;;5011745;28;19952;-64
2023/04/06 01:24:33;;;;;;;;;;;2.60;71.20;;;;;;5028898;28;19972;-64
2023/04/06 01:27:03;;;;;;;;;;;2.50;71.30;;;;;;5031897;28;19924;-64
2023/04/06 01:29:42;;;;;;;;;;;2.50;71.30;;;;;;5019830;28;19924;-63
2023/04/06 01:32:11;;;;;;;;;;;2.40;71.40;;;;;;5018649;28;19925;-78
2023/04/06 01:34:47;;;;;;;;;;;2.40;71.40;;;;;;5016443;28;20338;-78
2023/04/06 01:37:13;;;;;;;;;;;2.40;71.50;;;;;;5036514;28;20019;-70
2023/04/06 01:39:42;;;;;;;;;;;2.30;71.60;;;;;;5034302;28;20256;-72
2023/04/06 01:42:11;;;;;;;;;;;2.40;71.50;;;;;;5017147;28;19929;-63
2023/04/06 01:44:40;;;;;;;;;;;2.40;71.40;;;;;;5017648;28;19921;-63
2023/04/06 01:47:14;;;;;;;;;;;2.40;71.40;;;;;;5019130;28;20380;-63
2023/04/06 01:49:41;;;;;;;;;;;2.40;71.60;;;;;;5018545;28;19960;-65
2023/04/06 01:52:08;;;;;;;;;;;2.40;71.40;;;;;;5017849;28;20395;-65
2023/04/06 01:54:38;;;;;;;;;;;2.40;71.40;;;;;;5005135;28;19960;-64
2023/04/06 01:57:16;;;;;;;;;;;2.30;71.50;;;;;;5014727;28;19992;-64
2023/04/06 02:00:07;;;;;;;;;;;2.30;71.70;;;;;;5025871;28;20515;-64
2023/04/06 02:02:43;;;;;;;;;;;2.30;71.80;;;;;;5035326;28;19929;-69
2023/04/06 02:05:17;;;;;;;;;;;2.20;71.80;;;;;;5020338;28;19929;-70
2023/04/06 02:07:45;;;;;;;;;;;2.20;71.70;;;;;;5015696;28;20395;-69
2023/04/06 02:10:15;;;;;;;;;;;2.20;71.80;;;;;;5019922;28;19925;-68
2023/04/06 02:12:45;;;;;;;;;;;2.20;71.80;;;;;;5035930;28;19920;-62
2023/04/06 02:15:18;;;;;;;;;;;2.20;72.00;;;;;;5017578;28;19990;-61
2023/04/06 02:17:45;;;;;;;;;;;2.20;72.00;;;;;;5037330;28;19924;-70
2023/04/06 02:20:11;;;;;;;;;;;2.10;72.00;;;;;;5035203;28;19952;-69
2023/04/06 02:22:38;;;;;;;;;;;2.00;72.20;;;;;;5018479;28;20554;-64
2023/04/06 02:25:05;;;;;;;;;;;2.00;72.30;;;;;;5035196;28;19973;-67
2023/04/06 02:27:33;;;;;;;;;;;2.10;72.10;;;;;;5016963;28;20044;-71
2023/04/06 02:30:01;;;;;;;;;;;2.00;72.20;;;;;;5037863;28;19982;-72
2023/04/06 02:32:28;;;;;;;;;;;2.00;72.10;;;;;;5034407;28;19963;-68
2023/04/06 02:34:56;;;;;;;;;;;2.00;72.20;;;;;;5018821;28;19929;-70
2023/04/06 02:37:24;;;;;;;;;;;1.90;72.50;;;;;;4998618;28;19929;-64
2023/04/06 02:39:51;;;;;;;;;;;1.90;72.40;;;;;;5035029;28;19932;-63
2023/04/06 02:42:18;;;;;;;;;;;1.90;72.40;;;;;;5034690;28;19960;-62
2023/04/06 02:44:47;;;;;;;;;;;1.90;72.20;;;;;;5017562;28;20613;-61
2023/04/06 02:47:15;;;;;;;;;;;2.00;72.20;;;;;;5012033;28;21207;-72
2023/04/06 02:49:47;;;;;;;;;;;1.90;72.40;;;;;;5002125;28;19925;-71
2023/04/06 02:52:14;;;;;;;;;;;1.80;72.60;;;;;;5028930;28;19928;-63
2023/04/06 02:54:41;;;;;;;;;;;1.80;72.70;;;;;;5010009;28;20577;-65
2023/04/06 02:57:08;;;;;;;;;;;1.80;72.90;;;;;;5026933;28;20049;-71
2023/04/06 02:59:40;;;;;;;;;;;1.80;72.80;;;;;;5029393;28;19964;-72
2023/04/06 03:02:22;;;;;;;;;;;1.80;72.80;;;;;;5017175;28;19925;-73
2023/04/06 03:04:49;;;;;;;;;;;1.80;72.70;;;;;;5016390;28;20014;-73
2023/04/06 03:07:27;;;;;;;;;;;1.80;72.70;;;;;;5034074;28;19921;-70
2023/04/06 03:09:54;;;;;;;;;;;1.70;72.70;;;;;;5033875;28;19929;-72
2023/04/06 03:12:21;;;;;;;;;;;1.80;72.70;;;;;;5018542;28;20307;-71
2023/04/06 03:15:08;;;;;;;;;;;1.80;72.70;;;;;;5018157;28;19925;-69
2023/04/06 03:17:38;;;;;;;;;;;1.80;72.80;;;;;;5029556;28;19921;-64
2023/04/06 03:20:09;;;;;;;;;;;1.70;73.00;;;;;;5018789;28;20008;-66
2023/04/06 03:22:36;;;;;;;;;;;1.70;73.10;;;;;;5018600;28;19921;-66
2023/04/06 03:25:03;;;;;;;;;;;1.70;73.10;;;;;;5016562;28;20038;-67
2023/04/06 03:27:32;;;;;;;;;;;1.70;73.00;;;;;;5015348;28;19928;-65
2023/04/06 03:29:59;;;;;;;;;;;1.70;73.00;;;;;;5015976;28;19921;-64
2023/04/06 03:32:32;;;;;;;;;;;1.70;73.00;;;;;;5029566;28;20018;-65
2023/04/06 03:35:00;;;;;;;;;;;1.70;73.10;;;;;;5036626;28;20019;-66
2023/04/06 03:37:27;;;;;;;;;;;1.60;73.20;;;;;;4990134;28;19930;-69
2023/04/06 03:39:59;;;;;;;;;;;1.50;73.30;;;;;;5010820;28;19933;-69
2023/04/06 03:42:26;;;;;;;;;;;1.60;73.40;;;;;;5033126;28;20004;-64
2023/04/06 03:44:58;;;;;;;;;;;1.50;73.40;;;;;;5009990;28;19984;-63
2023/04/06 03:47:25;;;;;;;;;;;1.50;73.50;;;;;;5016275;28;19960;-67
2023/04/06 03:49:57;;;;;;;;;;;1.50;73.60;;;;;;5000830;28;19925;-69
2023/04/06 03:52:26;;;;;;;;;;;1.40;73.60;;;;;;5015190;28;19928;-68
2023/04/06 03:54:52;;;;;;;;;;;1.40;73.70;;;;;;5014261;28;19929;-67
2023/04/06 03:57:19;;;;;;;;;;;1.40;73.80;;;;;;5018958;28;19933;-64
2023/04/06 03:59:46;;;;;;;;;;;1.40;73.80;;;;;;5029116;28;20283;-63
2023/04/06 04:02:13;;;;;;;;;;;1.40;73.80;;;;;;5032580;28;19948;-63
2023/04/06 04:04:40;;;;;;;;;;;1.30;73.90;;;;;;5033516;28;19968;-63
2023/04/06 04:07:07;;;;;;;;;;;1.40;73.80;;;;;;4999203;28;20661;-64
2023/04/06 04:09:35;;;;;;;;;;;1.30;73.90;;;;;;5024042;28;19921;-66
2023/04/06 04:12:02;;;;;;;;;;;1.30;73.90;;;;;;5013396;28;20356;-69
2023/04/06 04:14:30;;;;;;;;;;;1.30;74.10;;;;;;5026636;28;19929;-69
2023/04/06 04:16:57;;;;;;;;;;;1.20;74.20;;;;;;5034529;28;19929;-73
2023/04/06 04:19:24;;;;;;;;;;;1.20;74.20;;;;;;5025637;28;19936;-72
2023/04/06 04:21:50;;;;;;;;;;;1.20;74.30;;;;;;5017422;28;19927;-64
2023/04/06 04:24:21;;;;;;;;;;;1.30;74.10;;;;;;5017364;28;19963;-63
2023/04/06 04:26:50;;;;;;;;;;;1.30;74.10;;;;;;5034559;28;19929;-68
2023/04/06 04:29:19;;;;;;;;;;;1.40;73.80;;;;;;5039584;28;19931;-69
2023/04/06 04:31:46;;;;;;;;;;;1.40;73.70;;;;;;5035550;28;19925;-65
2023/04/06 04:34:19;;;;;;;;;;;1.30;73.80;;;;;;5029037;28;20273;-65
2023/04/06 04:36:45;;;;;;;;;;;1.30;74.00;;;;;;5003282;28;20333;-64
2023/04/06 04:39:20;;;;;;;;;;;1.20;74.30;;;;;;5017671;28;19925;-64
2023/04/06 04:41:53;;;;;;;;;;;1.20;74.20;;;;;;5018854;28;19944;-61
2023/04/06 04:44:20;;;;;;;;;;;1.20;74.30;;;;;;5036302;28;19959;-62
2023/04/06 04:46:48;;;;;;;;;;;1.20;74.30;;;;;;5018886;28;19925;-63
2023/04/06 04:49:16;;;;;;;;;;;1.20;74.40;;;;;;5018504;28;20322;-63
2023/04/06 04:51:44;;;;;;;;;;;1.20;74.40;;;;;;5017329;28;20372;-64
2023/04/06 04:54:20;;;;;;;;;;;1.20;74.20;;;;;;5017273;28;19928;-63
2023/04/06 04:56:47;;;;;;;;;;;1.20;74.20;;;;;;5033670;28;19921;-65
2023/04/06 04:59:41;;;;;;;;;;;1.20;74.20;;;;;;5027784;28;20303;-65
2023/04/06 05:02:16;;;;;;;;;;;1.20;74.40;;;;;;5017087;28;20442;-72
2023/04/06 05:04:53;;;;;;;;;;;1.10;74.40;;;;;;5036032;28;19925;-71
2023/04/06 05:07:24;;;;;;;;;;;1.20;74.40;;;;;;5018104;28;19921;-72
2023/04/06 05:09:52;;;;;;;;;;;1.20;74.20;;;;;;5016814;28;19947;-72
2023/04/06 05:12:20;;;;;;;;;;;1.10;74.30;;;;;;5033197;28;19924;-73
2023/04/06 05:14:57;;;;;;;;;;;1.20;74.40;;;;;;5034717;28;19924;-74
2023/04/06 05:17:25;;;;;;;;;;;1.20;74.30;;;;;;5022436;28;19944;-66
2023/04/06 05:19:53;;;;;;;;;;;1.10;74.60;;;;;;5032225;28;19927;-65
2023/04/06 05:22:23;;;;;;;;;;;1.00;74.70;;;;;;5006578;28;20380;-66
2023/04/06 05:24:59;;;;;;;;;;;1.10;74.90;;;;;;5012807;28;19931;-64
2023/04/06 05:27:25;;;;;;;;;;;1.20;74.70;;;;;;5014204;28;19925;-66
2023/04/06 05:29:53;;;;;;;;;;;1.20;74.50;;;;;;5005947;28;20568;-66
2023/04/06 05:32:24;;;;;;;;;;;1.20;74.50;;;;;;5018647;28;19932;-64
2023/04/06 05:34:51;;;;;;;;;;;1.20;74.60;;;;;;5020485;28;19920;-65
2023/04/06 05:37:18;;;;;;;;;;;1.20;74.70;;;;;;5034935;28;19959;-66
2023/04/06 05:39:45;;;;;;;;;;;1.20;74.60;;;;;;5029772;28;20075;-64
2023/04/06 05:42:13;;;;;;;;;;;1.20;74.60;;;;;;5014157;28;20384;-64
2023/04/06 05:44:56;;;;;;;;;;;1.20;74.70;;;;;;5003921;28;19924;-63
2023/04/06 05:47:24;;;;;;;;;;;1.20;74.80;;;;;;5014454;28;19929;-63
2023/04/06 05:49:59;;;;;;;;;;;1.20;74.80;;;;;;5014519;28;19929;-62
2023/04/06 05:52:32;;;;;;;;;;;1.20;75.00;;;;;;5015297;28;20044;-63
2023/04/06 05:54:59;;;;;;;;;;;1.20;75.00;;;;;;5002717;28;19925;-64
2023/04/06 05:57:27;;;;;;;;;;;1.30;74.80;;;;;;5019133;28;19964;-65
2023/04/06 05:59:55;;;;;;;;;;;1.40;74.60;;;;;;5012439;28;19920;-65
2023/04/06 06:02:25;;;;;;;;;;;1.30;74.50;;;;;;5000572;28;19956;-62
2023/04/06 06:04:53;;;;;;;;;;;1.40;74.40;;;;;;5008582;28;19933;-64
2023/04/06 06:07:20;;;;;;;;;;;1.40;74.50;;;;;;5017956;28;19925;-66
2023/04/06 06:09:57;;;;;;;;;;;1.50;74.30;;;;;;5015002;28;20005;-66
2023/04/06 06:12:28;;;;;;;;;;;1.50;74.50;;;;;;5016384;28;20023;-61
2023/04/06 06:14:56;;;;;;;;;;;1.60;74.60;;;;;;5020801;28;20304;-61
2023/04/06 06:17:25;;;;;;;;;;;1.60;74.50;;;;;;5030738;28;19921;-61
2023/04/06 06:19:52;;;;;;;;;;;1.70;74.40;;;;;;5032611;28;19948;-62
2023/04/06 06:22:19;;;;;;;;;;;1.70;74.10;;;;;;5015021;28;20040;-65
2023/04/06 06:24:47;;;;;;;;;;;1.80;74.10;;;;;;5017797;28;19921;-65
2023/04/06 06:27:17;;;;;;;;;;;1.90;73.90;;;;;;5030431;28;20015;-64
2023/04/06 06:29:44;;;;;;;;;;;2.00;73.50;;;;;;5014635;28;20303;-66
2023/04/06 06:32:11;;;;;;;;;;;2.10;73.50;;;;;;5011008;28;19925;-65
2023/04/06 06:34:40;;;;;;;;;;;2.20;73.20;;;;;;5019595;28;20368;-62
2023/04/06 06:37:09;;;;;;;;;;;2.20;72.40;;;;;;5010117;28;20024;-64
2023/04/06 06:39:38;;;;;;;;;;;2.40;72.80;;;;;;5014471;28;20024;-66
2023/04/06 06:42:05;;;;;;;;;;;2.50;72.70;;;;;;5016230;28;20002;-64
2023/04/06 06:44:52;;;;;;;;;;;2.60;72.50;;;;;;5014142;28;19931;-64
2023/04/06 06:47:19;;;;;;;;;;;2.70;72.20;;;;;;5031984;28;19971;-72
2023/04/06 06:49:47;;;;;;;;;;;2.70;72.00;;;;;;5002923;28;20400;-71
2023/04/06 06:52:14;;;;;;;;;;;2.80;72.10;;;;;;5017287;28;19932;-65
2023/04/06 06:54:41;;;;;;;;;;;2.90;72.00;;;;;;5016537;28;19924;-64
2023/04/06 06:57:08;;;;;;;;;;;3.00;72.00;;;;;;5037079;28;19932;-64
2023/04/06 06:59:35;;;;;;;;;;;3.10;71.80;;;;;;5018300;28;19960;-63
2023/04/06 07:02:02;;;;;;;;;;;3.10;71.50;;;;;;5026931;28;20044;-68
2023/04/06 07:04:30;;;;;;;;;;;3.00;71.60;;;;;;5000874;28;19928;-69
2023/04/06 07:06:58;;;;;;;;;;;3.20;71.80;;;;;;5031594;28;19924;-69
2023/04/06 07:09:26;;;;;;;;;;;3.20;71.40;;;;;;5015791;28;20007;-69
2023/04/06 07:11:53;;;;;;;;;;;3.20;71.70;;;;;;5029615;28;20033;-63
2023/04/06 07:14:20;;;;;;;;;;;3.40;71.50;;;;;;5028119;28;19964;-64
2023/04/06 07:16:48;;;;;;;;;;;3.40;71.00;;;;;;5001897;28;20316;-66
2023/04/06 07:19:16;;;;;;;;;;;3.40;70.80;;;;;;5031495;28;20483;-67
2023/04/06 07:21:43;;;;;;;;;;;3.60;70.50;;;;;;5032813;28;20015;-67
2023/04/06 07:24:12;;;;;;;;;;;3.70;70.40;;;;;;5034681;28;19928;-67
2023/04/06 07:26:39;;;;;;;;;;;3.80;70.00;;;;;;5031710;28;20405;-65
2023/04/06 07:29:06;;;;;;;;;;;3.90;69.80;;;;;;5032111;28;20451;-67
2023/04/06 07:31:33;;;;;;;;;;;4.00;69.40;;;;;;5013091;28;20180;-65
2023/04/06 07:34:00;;;;;;;;;;;4.30;68.80;;;;;;5017876;28;19921;-67
2023/04/06 07:36:27;;;;;;;;;;;4.40;68.00;;;;;;5012008;28;19947;-67
2023/04/06 07:38:54;;;;;;;;;;;4.50;67.60;;;;;;5035288;28;19925;-65
2023/04/06 07:41:23;;;;;;;;;;;4.60;67.10;;;;;;5035337;28;20377;-65
2023/04/06 07:43:50;;;;;;;;;;;4.80;66.50;;;;;;5028467;28;19931;-66
2023/04/06 07:46:17;;;;;;;;;;;5.00;65.70;;;;;;5018293;28;19925;-62
2023/04/06 07:48:44;;;;;;;;;;;5.20;65.60;;;;;;5014791;28;19956;-63
2023/04/06 07:51:14;;;;;;;;;;;5.40;65.00;;;;;;5035041;28;19925;-63
2023/04/06 07:53:41;;;;;;;;;;;5.60;64.90;;;;;;5023534;28;19921;-62
2023/04/06 07:56:08;;;;;;;;;;;5.70;64.20;;;;;;5034600;28;19929;-61
2023/04/06 07:58:37;;;;;;;;;;;5.90;63.10;;;;;;5035243;28;19967;-63
2023/04/06 08:01:03;;;;;;;;;;;6.00;62.50;;;;;;5036950;28;19928;-65
2023/04/06 08:03:30;;;;;;;;;;;6.20;62.40;;;;;;5037678;28;19999;-62
2023/04/06 08:05:57;;;;;;;;;;;6.30;61.70;;;;;;5039381;28;19964;-62
2023/04/06 08:08:24;;;;;;;;;;;6.50;61.00;;;;;;5030646;28;20007;-64
2023/04/06 08:10:51;;;;;;;;;;;6.60;61.40;;;;;;5034193;28;19932;-62
2023/04/06 08:13:17;;;;;;;;;;;6.70;60.30;;;;;;5018851;28;20011;-63
2023/04/06 08:15:46;;;;;;;;;;;6.70;59.40;;;;;;5037758;28;20432;-64
2023/04/06 08:18:13;;;;;;;;;;;6.90;59.60;;;;;;5037581;28;19999;-64
2023/04/06 08:20:40;;;;;;;;;;;7.20;59.40;;;;;;5038745;28;20021;-62
2023/04/06 08:23:09;;;;;;;;;;;7.40;58.90;;;;;;5036855;28;19929;-63
2023/04/06 08:25:36;;;;;;;;;;;7.50;58.80;;;;;;5041296;28;20291;-71
2023/04/06 08:28:03;;;;;;;;;;;7.70;58.70;;;;;;5039558;28;19932;-72
2023/04/06 08:30:30;;;;;;;;;;;7.80;57.90;;;;;;5034776;28;20503;-70
2023/04/06 08:32:58;;;;;;;;;;;7.90;57.70;;;;;;5038008;28;19968;-71
2023/04/06 08:35:25;;;;;;;;;;;8.00;57.10;;;;;;5037675;28;19924;-69
2023/04/06 08:37:52;;;;;;;;;;;8.30;55.90;;;;;;5033741;28;19922;-69
2023/04/06 08:40:19;;;;;;;;;;;8.30;56.20;;;;;;5040387;28;20035;-68
2023/04/06 08:42:50;;;;;;;;;;;8.50;55.90;;;;;;5034592;28;19920;-69
2023/04/06 08:45:17;;;;;;;;;;;8.60;55.10;;;;;;5040186;28;19925;-68
2023/04/06 08:47:44;;;;;;;;;;;8.70;54.50;;;;;;5035758;28;19936;-69
2023/04/06 08:50:12;;;;;;;;;;;8.90;53.90;;;;;;5041447;28;20015;-70
2023/04/06 08:52:39;;;;;;;;;;;9.10;54.60;;;;;;5038644;28;19982;-72
2023/04/06 08:55:07;;;;;;;;;;;9.10;54.50;;;;;;5005589;28;19929;-72
2023/04/06 08:57:36;;;;;;;;;;;9.20;53.50;;;;;;5039415;28;20413;-71
2023/04/06 09:00:03;;;;;;;;;;;9.40;53.20;;;;;;5037006;28;20047;-72
2023/04/06 09:02:30;;;;;;;;;;;9.50;52.60;;;;;;5031811;28;19925;-72
2023/04/06 09:04:57;;;;;;;;;;;9.70;52.30;;;;;;5030012;28;19925;-72
2023/04/06 09:07:25;;;;;;;;;;;9.80;52.50;;;;;;5034822;28;19929;-65
2023/04/06 09:09:52;;;;;;;;;;;9.90;53.10;;;;;;5035647;28;19936;-63
2023/04/06 09:12:26;;;;;;;;;;;10.00;53.00;;;;;;5030498;28;20007;-64
2023/04/06 09:14:53;;;;;;;;;;;10.10;51.60;;;;;;5033833;28;19928;-62
2023/04/06 09:17:23;;;;;;;;;;;10.20;50.90;;;;;;5032441;28;20372;-62
2023/04/06 09:19:50;;;;;;;;;;;10.30;50.40;;;;;;5034123;28;19928;-63
2023/04/06 09:22:17;;;;;;;;;;;10.50;50.70;;;;;;5031416;28;20840;-64
2023/04/06 09:24:46;;;;;;;;;;;10.60;50.00;;;;;;5037734;28;19921;-62
2023/04/06 09:27:14;;;;;;;;;;;10.80;50.60;;;;;;5036710;28;19929;-72
2023/04/06 09:29:41;;;;;;;;;;;11.00;49.90;;;;;;5037919;28;20407;-72
2023/04/06 09:32:10;;;;;;;;;;;11.10;49.20;;;;;;5028099;28;20855;-74
2023/04/06 09:34:37;;;;;;;;;;;11.10;49.20;;;;;;5031025;28;20011;-73
2023/04/06 09:37:13;;;;;;;;;;;11.30;49.60;;;;;;5034665;28;19956;-72
2023/04/06 09:39:39;;;;;;;;;;;11.40;48.80;;;;;;5033398;28;19975;-74
2023/04/06 09:42:07;;;;;;;;;;;11.50;48.20;;;;;;5032351;28;20008;-74
2023/04/06 09:44:34;;;;;;;;;;;11.60;47.70;;;;;;5030672;28;19927;-74
2023/04/06 09:47:01;;;;;;;;;;;11.60;47.70;;;;;;5031288;28;19944;-74
2023/04/06 09:49:28;;;;;;;;;;;11.60;47.50;;;;;;5034265;28;19929;-73
2023/04/06 09:51:58;;;;;;;;;;;11.70;47.30;;;;;;5033256;28;20391;-75
2023/04/06 09:54:28;;;;;;;;;;;11.80;46.30;;;;;;5031019;28;19932;-75
2023/04/06 09:56:58;;;;;;;;;;;11.90;46.70;;;;;;5033923;28;19921;-74
2023/04/06 09:59:30;;;;;;;;;;;12.00;45.70;;;;;;5033847;28;20434;-75
2023/04/06 10:01:59;;;;;;;;;;;12.10;45.60;;;;;;5032849;28;19937;-76
2023/04/06 10:04:30;;;;;;;;;;;12.20;45.80;;;;;;5031699;28;19928;-76
2023/04/06 10:06:59;;;;;;;;;;;12.30;45.40;;;;;;5027534;28;19943;-74
2023/04/06 10:09:29;;;;;;;;;;;12.40;45.60;;;;;;5034075;28;20016;-76
2023/04/06 10:11:56;;;;;;;;;;;12.50;44.60;;;;;;5037093;28;19921;-76
2023/04/06 10:14:23;;;;;;;;;;;12.60;44.50;;;;;;5031449;28;19935;-76
2023/04/06 10:16:51;;;;;;;;;;;12.70;44.80;;;;;;5034313;28;19975;-68
2023/04/06 10:19:22;;;;;;;;;;;12.60;44.20;;;;;;5032716;28;20014;-68
2023/04/06 10:21:51;;;;;;;;;;;12.40;43.50;;;;;;5038162;28;19921;-72
2023/04/06 10:24:18;;;;;;;;;;;12.50;43.30;;;;;;5033687;28;19931;-73
2023/04/06 10:26:57;;;;;;;;;;;12.60;44.00;;;;;;5034640;28;19925;-69
2023/04/06 10:29:24;;;;;;;;;;;12.90;43.90;;;;;;5030425;28;19934;-68
2023/04/06 10:31:52;;;;;;;;;;;13.10;43.50;;;;;;5032613;28;20035;-70
2023/04/06 10:34:19;;;;;;;;;;;13.30;43.10;;;;;;5031797;28;19956;-69
2023/04/06 10:36:46;;;;;;;;;;;13.40;42.70;;;;;;5034868;28;20504;-63
2023/04/06 10:39:12;;;;;;;;;;;13.40;42.30;;;;;;5032857;28;20007;-65
2023/04/06 10:41:42;;;;;;;;;;;13.50;42.40;;;;;;5028888;28;20339;-76
2023/04/06 10:44:17;;;;;;;;;;;13.60;42.80;;;;;;5030831;28;23174;-74
2023/04/06 10:46:53;;;;;;;;;;;13.70;41.90;;;;;;5036298;28;19936;-70
2023/04/06 10:49:21;;;;;;;;;;;13.80;42.40;;;;;;5032667;28;20347;-70
2023/04/06 10:51:52;;;;;;;;;;;13.80;42.60;;;;;;5033482;28;19949;-69
2023/04/06 10:54:19;;;;;;;;;;;13.60;42.20;;;;;;5030621;28;19928;-70
2023/04/06 10:56:46;;;;;;;;;;;13.30;41.70;;;;;;5030769;28;19999;-70
2023/04/06 10:59:13;;;;;;;;;;;13.20;42.20;;;;;;5034063;28;20379;-70
2023/04/06 11:01:45;;;;;;;;;;;13.30;42.30;;;;;;5031922;28;19921;-69
2023/04/06 11:04:16;;;;;;;;;;;13.50;42.20;;;;;;5031636;28;19952;-70
2023/04/06 11:06:46;;;;;;;;;;;13.60;41.80;;;;;;5036895;28;19920;-70
2023/04/06 11:09:23;;;;;;;;;;;13.60;41.60;;;;;;5026415;28;19921;-68
2023/04/06 11:11:50;;;;;;;;;;;13.60;41.50;;;;;;5030832;28;20007;-64
2023/04/06 11:14:17;;;;;;;;;;;13.70;41.60;;;;;;5032564;28;20043;-64
2023/04/06 11:16:46;;;;;;;;;;;13.80;41.90;;;;;;5033237;28;20016;-64
2023/04/06 11:19:13;;;;;;;;;;;13.90;41.80;;;;;;5034553;28;19961;-65
2023/04/06 11:21:43;;;;;;;;;;;13.90;42.30;;;;;;5034664;28;19933;-64
2023/04/06 11:24:12;;;;;;;;;;;14.10;42.40;;;;;;5031795;28;20386;-65
2023/04/06 11:26:40;;;;;;;;;;;14.00;42.60;;;;;;5028758;28;19925;-64
2023/04/06 11:29:07;;;;;;;;;;;14.00;42.30;;;;;;5032681;28;20374;-63
2023/04/06 11:31:38;;;;;;;;;;;14.10;42.00;;;;;;5030999;28;19924;-63
2023/04/06 11:34:09;;;;;;;;;;;14.10;41.20;;;;;;5024059;28;19925;-64
2023/04/06 11:36:36;;;;;;;;;;;14.10;40.80;;;;;;5030154;28;19925;-64
2023/04/06 11:39:04;;;;;;;;;;;14.10;40.80;;;;;;5029972;28;19967;-64
2023/04/06 11:41:33;;;;;;;;;;;14.20;40.60;;;;;;5033464;28;19920;-64
2023/04/06 11:44:01;;;;;;;;;;;14.20;40.30;;;;;;5014646;28;20024;-63
2023/04/06 11:46:28;;;;;;;;;;;14.20;40.80;;;;;;5030430;28;19921;-77
2023/04/06 11:48:58;;;;;;;;;;;14.30;41.40;;;;;;5032258;28;19932;-77
2023/04/06 11:51:26;;;;;;;;;;;14.30;40.30;;;;;;5013801;28;19962;-77
2023/04/06 11:53:53;;;;;;;;;;;14.30;40.40;;;;;;5033880;28;19971;-77
2023/04/06 11:56:26;;;;;;;;;;;14.30;40.90;;;;;;5031678;28;19964;-77
2023/04/06 11:58:54;;;;;;;;;;;14.30;40.70;;;;;;5032813;28;19925;-78
2023/04/06 12:01:21;;;;;;;;;;;14.30;41.00;;;;;;5035651;28;20433;-78
2023/04/06 12:03:48;;;;;;;;;;;14.30;41.00;;;;;;5032616;28;19929;-76
2023/04/06 12:06:15;;;;;;;;;;;14.40;40.90;;;;;;5027820;28;19969;-78
2023/04/06 12:08:42;;;;;;;;;;;14.40;41.00;;;;;;5033853;28;20435;-76
2023/04/06 12:11:09;;;;;;;;;;;14.40;40.80;;;;;;5037058;28;20952;-76
2023/04/06 12:13:35;;;;;;;;;;;14.50;41.70;;;;;;5034270;28;19936;-77
2023/04/06 12:16:04;;;;;;;;;;;14.50;40.70;;;;;;5031108;28;19999;-78
2023/04/06 12:18:30;;;;;;;;;;;14.40;41.10;;;;;;5037718;28;19921;-79
2023/04/06 12:20:57;;;;;;;;;;;14.40;41.30;;;;;;5027473;28;20003;-70
2023/04/06 12:23:24;;;;;;;;;;;14.40;40.60;;;;;;5027808;28;20289;-70
2023/04/06 12:25:51;;;;;;;;;;;14.50;41.00;;;;;;5034230;28;19933;-61
2023/04/06 12:28:20;;;;;;;;;;;14.50;41.20;;;;;;5029511;28;19929;-62
2023/04/06 12:30:47;;;;;;;;;;;14.40;41.40;;;;;;5029065;28;20235;-64
2023/04/06 12:33:15;;;;;;;;;;;14.30;42.00;;;;;;5028632;28;19924;-65
2023/04/06 12:35:42;;;;;;;;;;;14.30;40.00;;;;;;5030058;28;19970;-65
2023/04/06 12:38:09;;;;;;;;;;;14.20;40.50;;;;;;5033277;28;19936;-64
2023/04/06 12:40:37;;;;;;;;;;;14.30;41.00;;;;;;5037054;28;19928;-72
2023/04/06 12:43:04;;;;;;;;;;;14.40;40.80;;;;;;5036445;28;19943;-72
2023/04/06 12:45:31;;;;;;;;;;;14.40;41.40;;;;;;5031642;28;19925;-70
2023/04/06 12:47:58;;;;;;;;;;;14.20;40.40;;;;;;5035135;28;19921;-74
2023/04/06 12:50:26;;;;;;;;;;;14.10;40.30;;;;;;5027667;28;19972;-74
2023/04/06 12:52:53;;;;;;;;;;;14.10;40.10;;;;;;5034357;28;20772;-72
2023/04/06 12:55:20;;;;;;;;;;;14.10;40.70;;;;;;5038724;28;20011;-69
2023/04/06 12:57:47;;;;;;;;;;;14.20;40.80;;;;;;5034168;28;19920;-69
2023/04/06 13:00:15;;;;;;;;;;;14.20;40.40;;;;;;5032868;28;20015;-68
2023/04/06 13:02:46;;;;;;;;;;;14.20;40.00;;;;;;5017864;28;20256;-68
2023/04/06 13:05:13;;;;;;;;;;;14.10;39.60;;;;;;5032378;28;20011;-68
2023/04/06 13:07:41;;;;;;;;;;;14.10;38.80;;;;;;5003851;28;19931;-68
2023/04/06 13:10:08;;;;;;;;;;;14.00;39.50;;;;;;5030795;28;19921;-69
2023/04/06 13:12:36;;;;;;;;;;;14.10;39.90;;;;;;5035154;28;19988;-69
2023/04/06 13:15:03;;;;;;;;;;;14.10;40.30;;;;;;5035150;28;20445;-69
2023/04/06 13:17:30;;;;;;;;;;;14.20;40.50;;;;;;5033891;28;19940;-63
2023/04/06 13:19:57;;;;;;;;;;;14.10;40.20;;;;;;5038221;28;19925;-62
2023/04/06 13:22:24;;;;;;;;;;;14.00;40.50;;;;;;5033087;28;19928;-64
2023/04/06 13:24:52;;;;;;;;;;;13.90;40.30;;;;;;5031188;28;19937;-67
2023/04/06 13:27:19;;;;;;;;;;;13.90;40.10;;;;;;5033474;28;20434;-74
2023/04/06 13:29:46;;;;;;;;;;;13.90;40.80;;;;;;5035509;28;19991;-73
2023/04/06 13:32:13;;;;;;;;;;;14.00;40.70;;;;;;5015380;28;20662;-75
2023/04/06 13:34:40;;;;;;;;;;;14.10;41.90;;;;;;5033970;28;19954;-75
2023/04/06 13:37:07;;;;;;;;;;;14.00;40.70;;;;;;5036855;28;19929;-71
2023/04/06 13:39:33;;;;;;;;;;;13.90;40.10;;;;;;5036226;28;20429;-71
2023/04/06 13:42:02;;;;;;;;;;;13.90;40.10;;;;;;5035417;28;19948;-73
2023/04/06 13:44:29;;;;;;;;;;;13.80;39.80;;;;;;5032674;28;19932;-73
2023/04/06 13:46:57;;;;;;;;;;;13.70;40.30;;;;;;4999806;28;19929;-74
2023/04/06 13:49:24;;;;;;;;;;;13.50;40.30;;;;;;5034323;28;19967;-72
2023/04/06 13:51:51;;;;;;;;;;;13.30;39.60;;;;;;5032252;28;19928;-70
2023/04/06 13:54:18;;;;;;;;;;;13.30;39.70;;;;;;5027514;28;20376;-69
2023/04/06 13:56:45;;;;;;;;;;;13.30;38.30;;;;;;5033931;28;19970;-73
2023/04/06 13:59:13;;;;;;;;;;;13.30;37.80;;;;;;5034873;28;19936;-74
2023/04/06 14:01:39;;;;;;;;;;;13.20;38.00;;;;;;5009627;28;19936;-74
2023/04/06 14:04:06;;;;;;;;;;;13.30;38.30;;;;;;5034260;28;19983;-73
2023/04/06 14:06:33;;;;;;;;;;;13.40;39.00;;;;;;5033118;28;20475;-72
2023/04/06 14:09:00;;;;;;;;;;;13.50;39.50;;;;;;5029305;28;19924;-72
2023/04/06 14:11:27;;;;;;;;;;;13.50;39.40;;;;;;5032034;28;19925;-77
2023/04/06 14:13:53;;;;;;;;;;;13.50;39.30;;;;;;5033276;28;19920;-75
2023/04/06 14:16:24;;;;;;;;;;;13.50;39.90;;;;;;5035435;28;19928;-75
2023/04/06 14:18:51;;;;;;;;;;;13.40;40.00;;;;;;5035559;28;20394;-76
2023/04/06 14:21:18;;;;;;;;;;;13.40;39.70;;;;;;5033167;28;19925;-77
2023/04/06 14:23:45;;;;;;;;;;;13.30;39.70;;;;;;5014354;28;19921;-79
2023/04/06 14:26:12;;;;;;;;;;;13.20;39.60;;;;;;5032838;28;19920;-71
2023/04/06 14:28:39;;;;;;;;;;;13.30;40.20;;;;;;5032379;28;19932;-70
2023/04/06 14:31:11;;;;;;;;;;;13.30;39.30;;;;;;5035666;28;19999;-67
2023/04/06 14:33:39;;;;;;;;;;;13.20;39.50;;;;;;5029854;28;20046;-65